Time;durP1;ratioP1;P1;durP2;ratioP2;P2;SDS_P1;SDS_P2;PMS_P1;PMS_P2;Temp;Humidity;BMP_temperature;BMP_pressure;BME280_temperature;BME280_humidity;BME280_pressure;Samples;Min_cycle;Max_cycle;Signal;HPM_P1;HPM_P2
2022/08/18 00:00:13;;;;;;;;;;;;;;;23.46;62.11;100985.88;1028770;28;718;-67
2022/08/18 00:01:03;;;;;;;;;;;;;;;23.45;61.83;100977.88;1029309;28;686;-67
2022/08/18 00:01:54;;;;;;;;;;;;;;;23.46;62.11;100983.13;1032477;28;650;-67
2022/08/18 00:02:44;;;;;;;;;;;;;;;23.47;62.03;100976.66;1032326;28;694;-67
2022/08/18 00:03:35;;;;;;;;;;;;;;;23.46;61.93;100977.69;1028793;28;685;-67
2022/08/18 00:04:26;;;;;;;;;;;;;;;23.48;61.59;100982.94;1029187;28;623;-67
2022/08/18 00:05:16;;;;;;;;;;;;;;;23.46;62.05;100985.88;1029159;28;647;-67
2022/08/18 00:06:07;;;;;;;;;;;;;;;23.46;62.11;100983.13;1032456;28;650;-67
2022/08/18 00:06:57;;;;;;;;;;;;;;;23.45;61.80;100980.59;1032314;28;615;-67
2022/08/18 00:07:48;;;;;;;;;;;;;;;23.46;62.05;100982.28;1028929;28;661;-67
2022/08/18 00:08:38;;;;;;;;;;;;;;;23.44;61.78;100989.78;1029144;28;600;-67
2022/08/18 00:09:29;;;;;;;;;;;;;;;23.45;62.05;100991.47;1029179;28;639;-67
2022/08/18 00:10:19;;;;;;;;;;;;;;;23.45;61.61;100988.75;1029141;28;659;-67
2022/08/18 00:11:09;;;;;;;;;;;;;;;23.43;62.18;100986.22;1028637;28;655;-67
2022/08/18 00:12:00;;;;;;;;;;;;;;;23.45;61.95;100991.47;1029357;28;683;-68
2022/08/18 00:12:50;;;;;;;;;;;;;;;23.44;62.22;100990.63;1029188;28;710;-67
2022/08/18 00:13:41;;;;;;;;;;;;;;;23.44;61.72;100987.91;1032430;28;678;-66
2022/08/18 00:14:31;;;;;;;;;;;;;;;23.44;62.00;100984.34;1028263;28;603;-67
2022/08/18 00:15:21;;;;;;;;;;;;;;;23.44;61.85;100985.19;1027837;28;663;-66
2022/08/18 00:16:12;;;;;;;;;;;;;;;23.43;61.80;100978.06;1024965;28;1268;-67
2022/08/18 00:17:02;;;;;;;;;;;;;;;23.43;61.82;100983.50;1026278;28;674;-67
2022/08/18 00:17:53;;;;;;;;;;;;;;;23.43;61.69;100982.66;1026196;28;651;-66
2022/08/18 00:18:43;;;;;;;;;;;;;;;23.43;62.02;100977.22;1026357;28;591;-67
2022/08/18 00:19:34;;;;;;;;;;;;;;;23.44;62.04;100971.59;1026182;28;650;-67
2022/08/18 00:20:24;;;;;;;;;;;;;;;23.41;61.62;100979.25;1024530;29;635;-67
2022/08/18 00:21:15;;;;;;;;;;;;;;;23.42;61.68;100975.50;1026272;28;886;-67
2022/08/18 00:22:05;;;;;;;;;;;;;;;23.40;62.20;100972.97;1026440;28;630;-66
2022/08/18 00:22:56;;;;;;;;;;;;;;;23.42;62.14;100970.91;1026384;28;743;-66
2022/08/18 00:23:47;;;;;;;;;;;;;;;23.42;62.25;100967.34;1029475;28;641;-67
2022/08/18 00:24:37;;;;;;;;;;;;;;;23.42;61.85;100967.34;1024844;29;631;-67
2022/08/18 00:25:27;;;;;;;;;;;;;;;23.43;61.66;100966.34;1025385;28;653;-66
2022/08/18 00:26:18;;;;;;;;;;;;;;;23.44;61.99;100965.31;1025709;28;729;-67
2022/08/18 00:27:11;;;;;;;;;;;;;;;23.43;62.27;100971.78;1026345;28;638;-67
2022/08/18 00:28:01;;;;;;;;;;;;;;;23.41;61.77;100963.78;1029597;28;776;-67
2022/08/18 00:28:51;;;;;;;;;;;;;;;23.39;61.83;100965.84;1030596;28;883;-67
2022/08/18 00:29:42;;;;;;;;;;;;;;;23.38;61.86;100968.72;1026434;28;697;-67
2022/08/18 00:30:32;;;;;;;;;;;;;;;23.38;61.86;100966.00;1026335;28;674;-67
2022/08/18 00:31:23;;;;;;;;;;;;;;;23.39;62.01;100960.41;1026147;28;685;-67
2022/08/18 00:32:13;;;;;;;;;;;;;;;23.41;61.70;100954.78;1024054;29;619;-67
2022/08/18 00:33:04;;;;;;;;;;;;;;;23.41;62.26;100962.94;1026217;28;696;-67
2022/08/18 00:33:54;;;;;;;;;;;;;;;23.41;61.81;100960.22;1026218;28;686;-67
2022/08/18 00:34:45;;;;;;;;;;;;;;;23.40;61.82;100959.38;1026179;28;627;-67
2022/08/18 00:35:35;;;;;;;;;;;;;;;23.40;62.07;100961.25;1026353;28;661;-67
2022/08/18 00:36:26;;;;;;;;;;;;;;;23.39;61.91;100960.41;1026173;28;666;-67
2022/08/18 00:37:16;;;;;;;;;;;;;;;23.41;62.12;100961.06;1026347;28;717;-66
2022/08/18 00:38:06;;;;;;;;;;;;;;;23.40;62.15;100962.09;1026164;28;689;-67
2022/08/18 00:38:57;;;;;;;;;;;;;;;23.36;62.29;100959.91;1029891;28;657;-67
2022/08/18 00:39:47;;;;;;;;;;;;;;;23.37;62.12;100967.88;1030558;28;661;-67
2022/08/18 00:40:38;;;;;;;;;;;;;;;23.34;62.25;100972.84;1025994;28;661;-67
2022/08/18 00:41:28;;;;;;;;;;;;;;;23.33;62.38;100962.97;1026223;28;684;-67
2022/08/18 00:42:19;;;;;;;;;;;;;;;23.36;62.22;100971.63;1024072;29;678;-67
2022/08/18 00:43:09;;;;;;;;;;;;;;;23.37;62.34;100975.19;1026320;28;610;-67
2022/08/18 00:44:00;;;;;;;;;;;;;;;23.37;62.19;100967.88;1026059;28;931;-66
2022/08/18 00:44:50;;;;;;;;;;;;;;;23.38;62.16;100977.75;1027552;28;1273;-67
2022/08/18 00:45:41;;;;;;;;;;;;;;;23.38;61.92;100975.03;1034438;28;740;-67
2022/08/18 00:46:32;;;;;;;;;;;;;;;23.38;62.09;100974.16;1033833;28;655;-67
2022/08/18 00:47:22;;;;;;;;;;;;;;;23.38;61.87;100975.03;1033210;28;697;-67
2022/08/18 00:48:13;;;;;;;;;;;;;;;23.37;61.88;100972.47;1033681;28;692;-67
2022/08/18 00:49:03;;;;;;;;;;;;;;;23.37;62.15;100967.03;1033723;28;1965;-67
2022/08/18 00:49:53;;;;;;;;;;;;;;;23.35;62.31;100969.09;1033603;28;661;-67
2022/08/18 00:50:44;;;;;;;;;;;;;;;23.36;62.10;100976.22;1033541;28;715;-67
2022/08/18 00:51:35;;;;;;;;;;;;;;;23.35;61.98;100966.38;1033667;28;642;-67
2022/08/18 00:52:26;;;;;;;;;;;;;;;23.35;62.21;100969.09;1033496;28;689;-68
2022/08/18 00:53:17;;;;;;;;;;;;;;;23.34;62.32;100965.53;1034541;28;665;-69
2022/08/18 00:54:07;;;;;;;;;;;;;;;23.35;62.00;100971.81;1032854;28;615;-68
2022/08/18 00:54:58;;;;;;;;;;;;;;;23.36;61.94;100965.34;1032655;28;638;-67
2022/08/18 00:55:48;;;;;;;;;;;;;;;23.35;62.10;100960.94;1034818;28;653;-67
2022/08/18 00:56:39;;;;;;;;;;;;;;;23.34;62.27;100975.56;1034297;28;732;-67
2022/08/18 00:57:29;;;;;;;;;;;;;;;23.35;62.23;100971.81;1033916;28;626;-68
2022/08/18 00:58:20;;;;;;;;;;;;;;;23.35;61.94;100963.66;1033097;28;779;-67
2022/08/18 00:59:11;;;;;;;;;;;;;;;23.34;61.82;100967.38;1033654;28;659;-68
2022/08/18 01:00:06;;;;;;;;;;;;;;;23.34;61.83;100968.25;1033728;28;606;-67
2022/08/18 01:00:56;;;;;;;;;;;;;;;23.35;61.75;100963.66;1033537;28;638;-67
2022/08/18 01:01:47;;;;;;;;;;;;;;;23.36;61.99;100960.75;1033623;28;709;-67
2022/08/18 01:02:39;;;;;;;;;;;;;;;23.34;61.78;100968.25;1034724;28;730;-67
2022/08/18 01:03:29;;;;;;;;;;;;;;;23.34;62.01;100967.38;1033714;28;632;-67
2022/08/18 01:04:19;;;;;;;;;;;;;;;23.32;62.08;100967.56;1033934;28;712;-67
2022/08/18 01:05:10;;;;;;;;;;;;;;;23.31;62.00;100968.59;1028866;28;677;-67
2022/08/18 01:06:00;;;;;;;;;;;;;;;23.34;62.12;100978.28;1029386;28;662;-67
2022/08/18 01:06:51;;;;;;;;;;;;;;;23.33;62.26;100976.56;1032827;28;705;-67
2022/08/18 01:07:44;;;;;;;;;;;;;;;23.35;62.25;100977.25;1033791;28;658;-67
2022/08/18 01:08:35;;;;;;;;;;;;;;;23.35;61.79;100972.66;1034069;28;728;-67
2022/08/18 01:09:25;;;;;;;;;;;;;;;23.34;61.87;100978.28;1033042;28;2009;-67
2022/08/18 01:10:16;;;;;;;;;;;;;;;23.33;62.12;100976.56;1033595;28;741;-67
2022/08/18 01:11:06;;;;;;;;;;;;;;;23.34;62.10;100979.13;1033653;28;690;-67
2022/08/18 01:11:56;;;;;;;;;;;;;;;23.33;61.87;100974.69;1034428;28;642;-67
2022/08/18 01:12:47;;;;;;;;;;;;;;;23.33;61.73;100982.00;1032828;28;693;-67
2022/08/18 01:13:37;;;;;;;;;;;;;;;23.32;62.02;100986.59;1028779;28;710;-68
2022/08/18 01:14:28;;;;;;;;;;;;;;;23.36;61.73;100987.09;1029218;28;690;-67
2022/08/18 01:15:18;;;;;;;;;;;;;;;23.33;61.82;100982.88;1032419;28;674;-67
2022/08/18 01:21:56;;;;;;;;;;;;;;;23.29;61.83;100986.13;1032363;28;641;-67
2022/08/18 01:22:47;;;;;;;;;;;;;;;23.30;62.38;100982.38;1033640;28;664;-67
2022/08/18 01:23:37;;;;;;;;;;;;;;;23.29;61.83;100986.97;1033455;28;650;-67
2022/08/18 01:26:48;;;;;;;;;;;;;;;23.26;61.94;100981.91;1033591;28;689;-67
2022/08/18 01:27:40;;;;;;;;;;;;;;;23.24;62.18;100986.66;1034532;28;677;-67
2022/08/18 01:28:31;;;;;;;;;;;;;;;23.26;62.40;100991.94;1033745;28;665;-68
2022/08/18 01:29:21;;;;;;;;;;;;;;;23.26;61.88;100989.22;1033875;28;1890;-68
2022/08/18 01:30:12;;;;;;;;;;;;;;;23.25;62.21;100990.25;1034047;28;661;-67
2022/08/18 01:31:02;;;;;;;;;;;;;;;23.26;62.11;100990.06;1033628;28;792;-67
2022/08/18 01:31:55;;;;;;;;;;;;;;;23.27;61.98;100988.19;1034818;28;622;-67
2022/08/18 01:32:46;;;;;;;;;;;;;;;23.25;62.37;100990.25;1034343;28;642;-67
2022/08/18 01:33:36;;;;;;;;;;;;;;;23.28;62.26;100992.59;1034393;28;653;-67
2022/08/18 01:34:27;;;;;;;;;;;;;;;23.28;62.13;100995.31;1034369;28;681;-68
2022/08/18 01:35:17;;;;;;;;;;;;;;;23.23;62.46;100992.28;1034506;28;663;-67
2022/08/18 01:36:08;;;;;;;;;;;;;;;23.24;62.38;100992.09;1035214;28;618;-67
2022/08/18 01:36:58;;;;;;;;;;;;;;;23.22;62.22;100988.72;1033567;28;646;-67
2022/08/18 01:37:48;;;;;;;;;;;;;;;23.22;62.05;100985.16;1033768;28;705;-67
2022/08/18 01:38:39;;;;;;;;;;;;;;;23.24;62.54;100988.53;1033871;28;653;-67
2022/08/18 01:39:30;;;;;;;;;;;;;;;23.25;62.17;100991.09;1034408;28;666;-67
2022/08/18 01:40:20;;;;;;;;;;;;;;;23.23;62.15;100984.13;1034736;28;657;-67
2022/08/18 01:41:10;;;;;;;;;;;;;;;23.23;62.08;100992.28;1034330;28;630;-67
2022/08/18 01:42:03;;;;;;;;;;;;;;;23.22;62.23;100986.00;1034470;28;736;-67
2022/08/18 01:42:55;;;;;;;;;;;;;;;23.23;62.08;100987.69;1034347;28;642;-67
2022/08/18 01:43:45;;;;;;;;;;;;;;;23.22;62.26;100990.59;1034375;28;781;-67
2022/08/18 01:44:36;;;;;;;;;;;;;;;23.20;62.28;100986.19;1034304;28;657;-67
2022/08/18 01:45:26;;;;;;;;;;;;;;;23.22;62.54;100985.16;1034750;28;764;-67
2022/08/18 01:46:18;;;;;;;;;;;;;;;23.22;62.34;100990.59;1033435;28;627;-67
2022/08/18 01:47:10;;;;;;;;;;;;;;;23.24;62.16;100991.25;1034835;28;737;-68
2022/08/18 01:48:03;;;;;;;;;;;;;;;23.22;62.59;100990.59;1034376;28;643;-67
2022/08/18 01:48:53;;;;;;;;;;;;;;;23.21;62.36;100995.19;1034218;28;705;-67
2022/08/18 01:49:43;;;;;;;;;;;;;;;23.20;62.10;100999.78;1034347;28;674;-67
2022/08/18 01:50:34;;;;;;;;;;;;;;;23.21;62.15;100995.19;1034274;28;646;-67
2022/08/18 01:51:25;;;;;;;;;;;;;;;23.20;62.33;100999.78;1034313;28;654;-67
2022/08/18 01:52:18;;;;;;;;;;;;;;;23.21;62.12;100995.19;1035237;28;693;-67
2022/08/18 01:53:10;;;;;;;;;;;;;;;23.20;62.29;100996.19;1033571;28;693;-67
2022/08/18 01:54:00;;;;;;;;;;;;;;;23.15;62.55;100991.28;1034944;28;768;-67
2022/08/18 01:54:51;;;;;;;;;;;;;;;23.16;62.61;100990.25;1034198;28;694;-67
2022/08/18 01:55:43;;;;;;;;;;;;;;;23.15;62.75;100991.28;1034209;28;650;-67
2022/08/18 01:56:35;;;;;;;;;;;;;;;23.14;62.61;100978.72;1034341;28;698;-67
2022/08/18 01:57:25;;;;;;;;;;;;;;;23.16;62.69;100990.25;1034273;28;690;-67
2022/08/18 01:58:16;;;;;;;;;;;;;;;23.18;62.18;100988.22;1034327;28;634;-67
2022/08/18 01:59:11;;;;;;;;;;;;;;;23.17;62.18;100980.25;1034225;28;622;-67
2022/08/18 02:00:02;;;;;;;;;;;;;;;23.20;62.14;100983.44;1034250;28;694;-67
2022/08/18 02:00:52;;;;;;;;;;;;;;;23.19;62.10;100976.31;1034331;28;1060;-67
2022/08/18 02:01:43;;;;;;;;;;;;;;;23.19;62.05;100984.47;1035474;28;713;-67
2022/08/18 02:02:33;;;;;;;;;;;;;;;23.18;62.30;100984.66;1034975;28;697;-67
2022/08/18 02:03:25;;;;;;;;;;;;;;;23.15;62.53;100979.56;1029927;28;816;-67
2022/08/18 02:04:16;;;;;;;;;;;;;;;23.15;62.16;100979.56;1030496;28;662;-67
2022/08/18 02:05:06;;;;;;;;;;;;;;;23.15;62.27;100983.13;1034318;28;724;-67
2022/08/18 02:05:57;;;;;;;;;;;;;;;23.15;62.57;100974.97;1034261;28;646;-67
2022/08/18 02:06:47;;;;;;;;;;;;;;;23.17;62.24;100980.25;1035211;28;654;-67
2022/08/18 02:07:38;;;;;;;;;;;;;;;23.16;62.18;100987.53;1032919;28;626;-67
2022/08/18 02:08:28;;;;;;;;;;;;;;;23.15;62.86;100983.13;1034217;28;724;-67
2022/08/18 02:09:19;;;;;;;;;;;;;;;23.16;62.45;100982.09;1034916;28;1898;-67
2022/08/18 02:10:09;;;;;;;;;;;;;;;23.12;62.25;100988.91;1034614;28;685;-67
2022/08/18 02:11:00;;;;;;;;;;;;;;;23.13;62.33;100985.19;1033684;28;765;-67
2022/08/18 02:11:50;;;;;;;;;;;;;;;23.14;62.27;100988.75;1034215;28;685;-67
2022/08/18 02:12:41;;;;;;;;;;;;;;;23.13;62.23;100987.91;1035457;28;701;-68
2022/08/18 02:13:31;;;;;;;;;;;;;;;23.14;62.66;100991.47;1034297;28;642;-67
2022/08/18 02:14:22;;;;;;;;;;;;;;;23.14;62.78;100994.19;1034233;28;633;-67
2022/08/18 02:15:12;;;;;;;;;;;;;;;23.13;62.32;100987.91;1034152;28;651;-67
2022/08/18 02:16:03;;;;;;;;;;;;;;;23.14;62.29;100997.75;1036695;28;1210;-67
2022/08/18 02:16:54;;;;;;;;;;;;;;;23.13;62.62;100993.34;1037180;28;649;-67
2022/08/18 02:17:44;;;;;;;;;;;;;;;23.12;62.55;100993.50;1037682;28;642;-66
2022/08/18 02:18:34;;;;;;;;;;;;;;;23.12;62.70;100991.63;1036181;28;765;-66
2022/08/18 02:19:25;;;;;;;;;;;;;;;23.07;62.73;100994.06;1037534;28;661;-66
2022/08/18 02:20:15;;;;;;;;;;;;;;;23.10;62.67;100999.16;1037126;28;685;-69
2022/08/18 02:21:06;;;;;;;;;;;;;;;23.11;62.38;101000.81;1036124;28;697;-67
2022/08/18 02:21:56;;;;;;;;;;;;;;;23.10;62.97;100998.31;1035404;28;676;-67
2022/08/18 02:22:47;;;;;;;;;;;;;;;23.10;62.57;100996.44;1037671;28;840;-67
2022/08/18 02:23:37;;;;;;;;;;;;;;;23.13;62.60;101001.50;1036174;28;624;-67
2022/08/18 02:24:28;;;;;;;;;;;;;;;23.12;62.02;101005.22;1037318;28;639;-67
2022/08/18 02:25:18;;;;;;;;;;;;;;;23.11;62.42;101011.69;1037708;28;674;-67
2022/08/18 02:26:09;;;;;;;;;;;;;;;23.06;62.86;101011.41;1037667;28;658;-67
2022/08/18 02:26:59;;;;;;;;;;;;;;;23.09;62.45;101008.34;1037668;28;642;-68
2022/08/18 02:27:49;;;;;;;;;;;;;;;23.08;62.57;101006.63;1037605;28;710;-67
2022/08/18 02:28:40;;;;;;;;;;;;;;;23.10;62.24;101012.75;1037665;28;634;-67
2022/08/18 02:29:30;;;;;;;;;;;;;;;23.10;62.68;101010.03;1037640;28;631;-67
2022/08/18 02:30:21;;;;;;;;;;;;;;;23.11;62.27;101003.53;1037597;28;704;-67
2022/08/18 02:31:11;;;;;;;;;;;;;;;23.12;62.68;101007.94;1037710;28;671;-67
2022/08/18 02:32:02;;;;;;;;;;;;;;;23.07;62.45;101004.94;1037653;28;630;-67
2022/08/18 02:32:52;;;;;;;;;;;;;;;23.08;62.64;101001.19;1036311;28;654;-67
2022/08/18 02:33:42;;;;;;;;;;;;;;;23.08;62.71;101000.34;1037336;28;701;-67
2022/08/18 02:34:33;;;;;;;;;;;;;;;23.07;62.89;100996.78;1037148;28;673;-67
2022/08/18 02:35:24;;;;;;;;;;;;;;;23.12;62.48;101010.66;1036295;28;682;-67
2022/08/18 02:36:14;;;;;;;;;;;;;;;23.07;62.98;101004.09;1037413;28;614;-67
2022/08/18 02:37:04;;;;;;;;;;;;;;;23.06;62.73;101003.25;1037133;28;622;-67
2022/08/18 02:37:55;;;;;;;;;;;;;;;23.09;62.81;101000.19;1037713;28;646;-67
2022/08/18 02:38:45;;;;;;;;;;;;;;;23.06;62.62;101003.25;1037532;28;606;-67
2022/08/18 02:39:36;;;;;;;;;;;;;;;23.07;62.53;101004.94;1037604;28;705;-67
2022/08/18 02:40:27;;;;;;;;;;;;;;;23.10;62.58;100993.72;1036288;28;671;-67
2022/08/18 02:41:19;;;;;;;;;;;;;;;23.10;62.65;101006.47;1037905;28;642;-67
2022/08/18 02:42:09;;;;;;;;;;;;;;;23.09;62.18;100994.75;1037610;28;704;-67
2022/08/18 02:43:00;;;;;;;;;;;;;;;23.08;62.21;100993.03;1037408;28;685;-67
2022/08/18 02:43:50;;;;;;;;;;;;;;;23.06;62.38;100995.09;1035666;28;705;-67
2022/08/18 02:44:41;;;;;;;;;;;;;;;23.05;62.74;101001.53;1037306;28;692;-67
2022/08/18 02:45:31;;;;;;;;;;;;;;;23.05;62.20;100995.25;1037189;28;704;-67
2022/08/18 02:46:22;;;;;;;;;;;;;;;23.07;62.39;100996.78;1036180;28;622;-67
2022/08/18 02:47:12;;;;;;;;;;;;;;;23.09;62.73;101004.75;1037283;28;654;-67
2022/08/18 02:48:02;;;;;;;;;;;;;;;23.08;62.67;101001.19;1037083;28;787;-67
2022/08/18 02:48:54;;;;;;;;;;;;;;;23.08;62.18;101003.91;1037708;28;657;-67
2022/08/18 02:49:44;;;;;;;;;;;;;;;23.03;62.64;101003.59;1036231;28;659;-67
2022/08/18 02:50:43;;;;;;;;;;;;;;;23.04;62.58;101008.00;1037543;28;701;-67
2022/08/18 02:51:34;;;;;;;;;;;;;;;23.04;62.46;101008.00;1036898;28;745;-67
2022/08/18 02:52:31;;;;;;;;;;;;;;;23.05;62.49;101008.84;1037585;28;618;-67
2022/08/18 02:53:22;;;;;;;;;;;;;;;23.04;62.41;101013.44;1035818;28;643;-66
2022/08/18 02:54:12;;;;;;;;;;;;;;;23.06;62.59;101014.13;1037624;28;662;-67
2022/08/18 02:55:02;;;;;;;;;;;;;;;23.04;62.40;101007.16;1035808;28;651;-67
2022/08/18 02:55:53;;;;;;;;;;;;;;;23.02;62.36;101007.34;1037561;28;698;-67
2022/08/18 02:56:44;;;;;;;;;;;;;;;23.02;62.51;101007.34;1035815;28;631;-67
2022/08/18 02:57:34;;;;;;;;;;;;;;;23.01;62.68;101012.94;1035738;28;659;-67
2022/08/18 02:58:25;;;;;;;;;;;;;;;23.00;62.84;101020.25;1037562;28;717;-67
2022/08/18 02:59:15;;;;;;;;;;;;;;;22.99;62.46;101013.13;1037530;28;717;-67
2022/08/18 03:00:06;;;;;;;;;;;;;;;23.01;62.69;101016.50;1037579;28;771;-67
2022/08/18 03:00:57;;;;;;;;;;;;;;;22.97;62.89;101015.16;1037036;28;748;-67
2022/08/18 03:01:47;;;;;;;;;;;;;;;23.00;62.54;101017.53;1037426;28;626;-67
2022/08/18 03:02:38;;;;;;;;;;;;;;;22.97;63.05;101012.44;1037551;28;618;-67
2022/08/18 03:04:46;;;;;;;;;;;;;;;23.00;62.52;101012.09;1046627;23;3601;-71
2022/08/18 03:05:36;;;;;;;;;;;;;;;23.01;62.46;101013.78;1016874;28;4214;-71
2022/08/18 03:06:27;;;;;;;;;;;;;;;23.00;62.99;101009.38;1029216;28;1190;-71
2022/08/18 03:07:17;;;;;;;;;;;;;;;23.00;62.65;101020.25;1029278;28;658;-71
2022/08/18 03:08:09;;;;;;;;;;;;;;;22.98;62.46;101014.13;1029223;28;676;-71
2022/08/18 03:08:59;;;;;;;;;;;;;;;22.99;62.93;101018.56;1022367;28;693;-71
2022/08/18 03:09:50;;;;;;;;;;;;;;;23.00;62.70;101019.41;1022396;28;662;-71
2022/08/18 03:10:40;;;;;;;;;;;;;;;23.00;62.85;101020.25;1022398;28;689;-71
2022/08/18 03:11:31;;;;;;;;;;;;;;;23.01;62.65;101021.09;1022376;28;626;-71
2022/08/18 03:12:21;;;;;;;;;;;;;;;23.01;62.55;101023.81;1022310;28;653;-71
2022/08/18 03:13:12;;;;;;;;;;;;;;;23.01;62.51;101015.66;1022376;28;637;-71
2022/08/18 03:14:04;;;;;;;;;;;;;;;22.97;62.88;101025.19;1021887;29;714;-70
2022/08/18 03:14:54;;;;;;;;;;;;;;;22.96;62.50;101018.91;1021717;29;661;-71
2022/08/18 03:15:45;;;;;;;;;;;;;;;22.96;62.57;101018.91;1022365;28;653;-71
2022/08/18 03:16:36;;;;;;;;;;;;;;;22.97;62.73;101020.59;1022502;28;1193;-71
2022/08/18 03:17:26;;;;;;;;;;;;;;;22.99;62.74;101018.56;1021263;29;696;-71
2022/08/18 03:18:17;;;;;;;;;;;;;;;23.01;62.38;101023.81;1022368;28;736;-71
2022/08/18 03:19:07;;;;;;;;;;;;;;;22.99;62.60;101029.44;1020712;29;618;-71
2022/08/18 03:19:58;;;;;;;;;;;;;;;23.00;62.57;101024.84;1022309;28;708;-71
2022/08/18 03:20:48;;;;;;;;;;;;;;;23.00;62.41;101024.84;1022235;28;641;-71
2022/08/18 03:21:38;;;;;;;;;;;;;;;23.00;62.80;101024.84;1021303;29;665;-71
2022/08/18 03:22:29;;;;;;;;;;;;;;;22.99;62.83;101028.56;1022377;28;670;-71
2022/08/18 03:23:19;;;;;;;;;;;;;;;23.01;62.46;101027.38;1022379;28;666;-71
2022/08/18 03:24:10;;;;;;;;;;;;;;;22.99;62.35;101025.84;1022265;28;621;-71
2022/08/18 03:25:00;;;;;;;;;;;;;;;22.98;62.52;101029.59;1022113;28;614;-71
2022/08/18 03:25:51;;;;;;;;;;;;;;;23.00;62.78;101025.69;1022278;28;698;-71
2022/08/18 03:26:41;;;;;;;;;;;;;;;23.00;62.51;101025.69;1021804;29;700;-71
2022/08/18 03:27:32;;;;;;;;;;;;;;;22.99;62.51;101021.28;1026028;28;685;-71
2022/08/18 03:28:22;;;;;;;;;;;;;;;22.97;62.99;101026.03;1025453;28;646;-71
2022/08/18 03:29:13;;;;;;;;;;;;;;;22.96;62.33;101021.63;1021593;28;1915;-71
2022/08/18 03:30:03;;;;;;;;;;;;;;;22.97;62.62;101025.19;1022239;28;633;-71
2022/08/18 03:30:54;;;;;;;;;;;;;;;22.99;62.47;101017.69;1022331;28;622;-71
2022/08/18 03:31:44;;;;;;;;;;;;;;;22.98;62.44;101025.00;1022178;28;654;-71
2022/08/18 03:32:34;;;;;;;;;;;;;;;22.99;62.67;101017.69;1022386;28;634;-71
2022/08/18 03:33:25;;;;;;;;;;;;;;;22.96;62.43;101013.47;1021883;28;641;-71
2022/08/18 03:34:18;;;;;;;;;;;;;;;22.93;62.94;101013.81;1021190;29;716;-71
2022/08/18 03:35:08;;;;;;;;;;;;;;;22.97;62.39;101014.31;1021180;29;785;-71
2022/08/18 03:35:59;;;;;;;;;;;;;;;22.98;62.38;101021.44;1022215;28;618;-71
2022/08/18 03:36:50;;;;;;;;;;;;;;;22.95;62.95;101017.19;1021195;29;618;-71
2022/08/18 03:37:40;;;;;;;;;;;;;;;22.95;62.89;101011.75;1022273;28;642;-71
2022/08/18 03:38:30;;;;;;;;;;;;;;;22.97;62.41;101015.16;1029521;28;1205;-71
2022/08/18 03:39:26;;;;;;;;;;;;;;;22.96;62.79;101024.34;1029187;28;744;-70
2022/08/18 03:40:16;;;;;;;;;;;;;;;22.93;62.57;101018.44;1029457;28;621;-70
2022/08/18 03:41:07;;;;;;;;;;;;;;;22.90;62.78;101019.63;1029375;28;680;-70
2022/08/18 03:41:58;;;;;;;;;;;;;;;22.94;63.00;101025.53;1029007;28;626;-70
2022/08/18 03:42:48;;;;;;;;;;;;;;;22.93;62.95;101021.97;1029099;28;621;-70
2022/08/18 03:43:39;;;;;;;;;;;;;;;22.93;62.68;101023.88;1029410;28;609;-70
2022/08/18 03:44:29;;;;;;;;;;;;;;;22.90;63.00;101021.50;1029374;28;641;-70
2022/08/18 03:45:21;;;;;;;;;;;;;;;22.92;62.52;101028.44;1029675;28;609;-70
2022/08/18 03:46:12;;;;;;;;;;;;;;;22.90;62.64;101026.94;1029551;28;815;-69
2022/08/18 03:47:02;;;;;;;;;;;;;;;22.91;62.46;101018.59;1029061;28;638;-69
2022/08/18 03:47:53;;;;;;;;;;;;;;;22.93;62.75;101029.31;1028590;28;630;-70
2022/08/18 03:48:45;;;;;;;;;;;;;;;22.95;62.77;101025.34;1029251;28;570;-70
2022/08/18 03:49:36;;;;;;;;;;;;;;;22.94;62.78;101023.66;1029140;28;891;-70
2022/08/18 03:50:26;;;;;;;;;;;;;;;22.93;62.41;101024.69;1029167;28;646;-70
2022/08/18 03:51:17;;;;;;;;;;;;;;;22.94;62.39;101031.81;1029026;28;893;-70
2022/08/18 03:52:08;;;;;;;;;;;;;;;22.94;62.32;101030.97;1029294;28;665;-71
2022/08/18 03:52:58;;;;;;;;;;;;;;;22.93;62.42;101027.41;1029150;28;799;-70
2022/08/18 03:53:48;;;;;;;;;;;;;;;22.91;62.61;101024.03;1029080;28;650;-70
2022/08/18 03:54:39;;;;;;;;;;;;;;;22.90;62.98;101019.63;1028844;28;665;-70
2022/08/18 03:55:29;;;;;;;;;;;;;;;22.92;62.88;101027.59;1029093;28;649;-70
2022/08/18 03:56:20;;;;;;;;;;;;;;;22.89;62.78;101028.78;1029073;28;623;-70
2022/08/18 03:57:11;;;;;;;;;;;;;;;22.91;62.72;101026.75;1028474;28;716;-70
2022/08/18 03:58:02;;;;;;;;;;;;;;;22.91;62.82;101032.19;1029075;28;653;-70
2022/08/18 03:58:52;;;;;;;;;;;;;;;22.92;62.97;101028.44;1029165;28;685;-70
2022/08/18 03:59:43;;;;;;;;;;;;;;;22.92;62.40;101028.44;1029381;28;748;-70
2022/08/18 04:00:33;;;;;;;;;;;;;;;22.91;62.39;101040.34;1025319;28;651;-70
2022/08/18 04:01:24;;;;;;;;;;;;;;;22.92;62.66;101028.44;1024856;29;626;-70
2022/08/18 04:02:14;;;;;;;;;;;;;;;22.93;62.94;101030.13;1028064;28;693;-70
2022/08/18 04:03:04;;;;;;;;;;;;;;;22.95;62.86;101038.94;1028924;28;610;-70
2022/08/18 04:03:55;;;;;;;;;;;;;;;22.93;62.38;101030.13;1028975;28;622;-70
2022/08/18 04:04:47;;;;;;;;;;;;;;;22.91;62.71;101026.75;1028900;28;1418;-70
2022/08/18 04:05:37;;;;;;;;;;;;;;;22.86;62.84;101023.69;1029614;28;661;-70
2022/08/18 04:06:28;;;;;;;;;;;;;;;22.90;62.64;101029.66;1029088;28;633;-70
2022/08/18 04:07:18;;;;;;;;;;;;;;;22.90;62.63;101025.06;1029544;28;631;-70
2022/08/18 04:08:09;;;;;;;;;;;;;;;22.83;62.82;101024.91;1029051;28;689;-69
2022/08/18 04:08:59;;;;;;;;;;;;;;;22.88;63.08;101027.09;1028961;28;620;-69
2022/08/18 04:09:50;;;;;;;;;;;;;;;22.89;62.52;101027.94;1029069;28;882;-69
2022/08/18 04:10:40;;;;;;;;;;;;;;;22.87;63.07;101025.41;1029116;28;642;-70
2022/08/18 04:11:30;;;;;;;;;;;;;;;22.88;62.37;101021.66;1029092;28;649;-70
2022/08/18 04:12:21;;;;;;;;;;;;;;;22.87;62.81;101024.56;1027366;28;1201;-71
2022/08/18 04:13:11;;;;;;;;;;;;;;;22.89;62.64;101026.06;1025579;28;664;-70
2022/08/18 04:14:02;;;;;;;;;;;;;;;22.88;62.50;101024.38;1025585;28;598;-70
2022/08/18 04:14:53;;;;;;;;;;;;;;;22.88;62.80;101027.09;1025653;28;566;-70
2022/08/18 04:15:43;;;;;;;;;;;;;;;22.89;63.01;101030.66;1025342;28;681;-70
2022/08/18 04:16:35;;;;;;;;;;;;;;;22.86;63.06;101023.69;1024768;29;705;-70
2022/08/18 04:17:27;;;;;;;;;;;;;;;22.86;62.77;101026.41;1027317;28;1772;-68
2022/08/18 04:18:18;;;;;;;;;;;;;;;22.85;62.70;101017.41;1029186;28;778;-67
2022/08/18 04:19:08;;;;;;;;;;;;;;;22.86;62.68;101026.41;1029154;28;629;-67
2022/08/18 04:19:59;;;;;;;;;;;;;;;22.89;62.68;101023.34;1029139;28;673;-67
2022/08/18 04:20:49;;;;;;;;;;;;;;;22.90;62.71;101026.94;1029222;28;634;-67
2022/08/18 04:21:42;;;;;;;;;;;;;;;22.91;62.67;101020.47;1029180;28;694;-67
2022/08/18 04:22:33;;;;;;;;;;;;;;;22.90;62.52;101018.78;1029221;28;634;-67
2022/08/18 04:23:24;;;;;;;;;;;;;;;22.88;62.65;101016.22;1029156;28;626;-67
2022/08/18 04:24:14;;;;;;;;;;;;;;;22.86;62.68;101018.28;1029205;28;634;-67
2022/08/18 04:25:08;;;;;;;;;;;;;;;22.87;62.50;101022.69;1029150;28;610;-67
2022/08/18 04:25:58;;;;;;;;;;;;;;;22.85;62.61;101014.69;1029119;28;720;-67
2022/08/18 04:26:48;;;;;;;;;;;;;;;22.89;62.45;101015.22;1029805;28;677;-67
2022/08/18 04:27:41;;;;;;;;;;;;;;;22.86;62.65;101023.69;1029226;28;842;-67
2022/08/18 04:28:32;;;;;;;;;;;;;;;22.81;63.04;101015.22;1028687;28;670;-67
2022/08/18 04:29:22;;;;;;;;;;;;;;;22.84;62.63;101023.88;1029614;28;1910;-66
2022/08/18 04:30:12;;;;;;;;;;;;;;;22.83;62.52;101015.91;1029064;28;860;-66
2022/08/18 04:31:03;;;;;;;;;;;;;;;22.83;62.85;101022.19;1029166;28;662;-67
2022/08/18 04:31:53;;;;;;;;;;;;;;;22.83;62.62;101015.91;1029156;28;689;-67
2022/08/18 04:32:44;;;;;;;;;;;;;;;22.86;63.01;101020.97;1029152;28;646;-67
2022/08/18 04:33:34;;;;;;;;;;;;;;;22.84;63.15;101012.16;1029804;28;716;-67
2022/08/18 04:34:26;;;;;;;;;;;;;;;22.83;62.59;101024.91;1029096;28;1200;-68
2022/08/18 04:35:16;;;;;;;;;;;;;;;22.82;62.59;101023.19;1028853;28;712;-67
2022/08/18 04:36:07;;;;;;;;;;;;;;;22.83;62.63;101018.63;1025385;28;685;-68